Time;durP1;ratioP1;P1;durP2;ratioP2;P2;SDS_P1;SDS_P2;PMS_P1;PMS_P2;Temp;Humidity;BMP_temperature;BMP_pressure;BME280_temperature;BME280_humidity;BME280_pressure;Samples;Min_cycle;Max_cycle;Signal;HPM_P1;HPM_P2
2022/03/21 00:00:38;;;;;;;17.90;11.50;;;7.00;1.00;;;;;;5116056;28;20766;-69
2022/03/21 00:03:07;;;;;;;17.57;12.40;;;7.00;1.00;;;;;;5117703;28;20473;-69
2022/03/21 00:05:34;;;;;;;16.40;12.20;;;6.90;1.00;;;;;;5120711;28;20767;-69
2022/03/21 00:08:00;;;;;;;16.97;11.57;;;6.90;1.00;;;;;;5119788;28;20460;-68
2022/03/21 00:10:28;;;;;;;16.33;12.80;;;6.90;1.00;;;;;;5119925;28;20466;-70
2022/03/21 00:12:54;;;;;;;15.73;11.23;;;6.90;1.00;;;;;;5119973;28;20463;-69
2022/03/21 00:15:23;;;;;;;14.93;11.43;;;6.90;1.00;;;;;;5120124;28;20456;-70
2022/03/21 00:17:52;;;;;;;16.27;11.40;;;6.90;1.00;;;;;;5120615;28;20456;-70
2022/03/21 00:20:20;;;;;;;16.23;11.60;;;6.80;1.00;;;;;;5120297;28;20453;-69
2022/03/21 00:22:46;;;;;;;14.80;11.23;;;6.90;1.00;;;;;;5119846;28;20463;-70
2022/03/21 00:25:13;;;;;;;48.00;26.10;;;6.80;1.00;;;;;;5119542;28;20460;-69
2022/03/21 00:27:40;;;;;;;16.43;12.90;;;6.80;1.00;;;;;;5119036;28;20922;-69
2022/03/21 00:30:09;;;;;;;17.93;12.17;;;6.80;1.00;;;;;;5119705;28;20766;-69
2022/03/21 00:32:36;;;;;;;18.80;12.50;;;6.80;1.00;;;;;;5119727;28;20464;-69
2022/03/21 00:35:04;;;;;;;16.90;12.30;;;6.80;1.00;;;;;;5120134;28;20467;-69
2022/03/21 00:37:33;;;;;;;15.70;12.27;;;6.70;1.00;;;;;;5119701;28;20464;-69
2022/03/21 00:39:59;;;;;;;18.13;11.63;;;6.70;1.00;;;;;;5119282;28;20453;-70
2022/03/21 00:42:27;;;;;;;15.60;11.37;;;6.60;1.00;;;;;;5119655;28;20456;-69
2022/03/21 00:44:54;;;;;;;20.63;13.10;;;6.60;1.00;;;;;;5119385;28;20485;-68
2022/03/21 00:47:21;;;;;;;19.80;12.93;;;6.50;1.00;;;;;;5119173;28;20467;-69
2022/03/21 00:49:48;;;;;;;15.97;12.03;;;6.50;1.00;;;;;;5119705;28;20480;-70
2022/03/21 00:52:15;;;;;;;18.67;13.30;;;6.40;1.00;;;;;;5119105;28;20542;-69
2022/03/21 00:54:43;;;;;;;16.80;12.47;;;6.40;1.00;;;;;;5119275;28;20460;-70
2022/03/21 00:57:12;;;;;;;17.90;12.07;;;6.40;1.00;;;;;;5118796;28;20467;-69
2022/03/21 00:59:39;;;;;;;18.83;12.97;;;6.30;1.00;;;;;;5119006;28;20448;-69
2022/03/21 01:02:06;;;;;;;19.53;13.70;;;6.30;1.00;;;;;;5118681;28;20934;-69
2022/03/21 01:04:33;;;;;;;19.10;13.57;;;6.30;1.00;;;;;;5119093;28;20533;-69
2022/03/21 01:06:59;;;;;;;20.10;13.70;;;6.30;1.00;;;;;;5119213;28;20452;-69
2022/03/21 01:09:27;;;;;;;23.80;16.80;;;6.30;1.00;;;;;;5118806;28;20585;-69
2022/03/21 01:11:55;;;;;;;25.70;16.70;;;6.30;1.00;;;;;;5119030;28;20491;-69
2022/03/21 01:14:21;;;;;;;25.93;17.70;;;6.20;1.00;;;;;;5118237;28;20587;-69
2022/03/21 01:16:50;;;;;;;20.00;14.80;;;6.30;1.00;;;;;;5118988;28;20452;-69
2022/03/21 01:19:16;;;;;;;20.37;15.07;;;6.30;1.00;;;;;;5118925;28;20513;-69
2022/03/21 01:21:43;;;;;;;19.83;15.03;;;6.20;1.00;;;;;;5119153;28;20530;-69
2022/03/21 01:24:10;;;;;;;19.83;14.40;;;6.20;1.00;;;;;;5119100;28;20926;-69
2022/03/21 01:26:36;;;;;;;15.13;13.07;;;6.20;1.00;;;;;;5118843;28;20517;-69
2022/03/21 01:29:04;;;;;;;19.70;13.10;;;6.10;1.00;;;;;;5118540;28;20483;-69
2022/03/21 01:31:31;;;;;;;15.60;12.97;;;6.10;1.00;;;;;;5119178;28;20779;-69
2022/03/21 01:33:58;;;;;;;18.47;13.97;;;6.00;1.00;;;;;;5118358;28;20467;-69
2022/03/21 01:36:25;;;;;;;18.87;13.23;;;6.00;1.00;;;;;;5118775;28;20467;-69
2022/03/21 01:38:51;;;;;;;16.37;13.00;;;5.90;1.00;;;;;;5118757;28;20457;-69
2022/03/21 01:41:18;;;;;;;16.83;12.20;;;5.90;1.00;;;;;;5118629;28;20513;-69
2022/03/21 01:43:59;;;;;;;16.73;12.83;;;5.90;1.00;;;;;;5118750;28;20476;-69
2022/03/21 01:46:28;;;;;;;17.77;13.37;;;5.90;1.00;;;;;;5118696;28;20463;-68
2022/03/21 01:48:55;;;;;;;22.03;12.20;;;5.90;1.00;;;;;;5118517;28;20481;-69
2022/03/21 01:51:22;;;;;;;15.93;12.37;;;5.90;1.00;;;;;;5118437;28;20478;-68
2022/03/21 01:56:33;;;;;;;19.53;12.60;;;5.70;1.00;;;;;;5118242;28;20440;-69
2022/03/21 01:58:59;;;;;;;15.10;12.60;;;5.70;1.00;;;;;;5118194;28;20843;-69
2022/03/21 02:01:27;;;;;;;18.47;12.70;;;5.70;1.00;;;;;;5118275;28;20459;-68
2022/03/21 02:03:54;;;;;;;17.37;12.50;;;5.70;1.00;;;;;;5116889;28;20448;-69
2022/03/21 02:06:21;;;;;;;20.23;12.60;;;5.70;1.00;;;;;;5116382;28;20903;-70
2022/03/21 02:08:48;;;;;;;15.90;12.57;;;5.60;1.00;;;;;;5116430;28;20480;-69
2022/03/21 02:11:16;;;;;;;16.00;11.93;;;5.60;1.00;;;;;;5116656;28;20463;-69
2022/03/21 02:13:43;;;;;;;16.27;11.93;;;5.50;1.00;;;;;;5115973;28;20499;-69
2022/03/21 02:16:10;;;;;;;16.40;12.73;;;5.50;1.00;;;;;;5116463;28;20461;-69
2022/03/21 02:18:41;;;;;;;16.13;11.40;;;5.50;1.00;;;;;;5116492;28;20453;-69
2022/03/21 02:21:15;;;;;;;16.80;12.30;;;5.50;1.00;;;;;;5116150;28;20452;-70
2022/03/21 02:23:46;;;;;;;20.37;12.57;;;5.50;1.00;;;;;;5116249;28;20443;-69
2022/03/21 02:26:15;;;;;;;15.47;12.77;;;5.40;1.00;;;;;;5115561;28;20441;-69
2022/03/21 02:28:43;;;;;;;16.37;12.13;;;5.40;1.00;;;;;;5115916;28;20463;-69
2022/03/21 02:31:11;;;;;;;19.53;12.50;;;5.40;1.00;;;;;;5116163;28;20467;-69
2022/03/21 02:33:39;;;;;;;18.27;12.47;;;5.40;1.00;;;;;;5116122;28;20941;-69
2022/03/21 02:36:07;;;;;;;14.23;11.53;;;5.40;1.00;;;;;;5116136;28;20812;-68
2022/03/21 02:38:35;;;;;;;19.07;12.03;;;5.40;1.00;;;;;;5116019;28;20843;-70
2022/03/21 02:41:02;;;;;;;19.80;12.83;;;5.40;1.00;;;;;;5116113;28;20467;-69
2022/03/21 02:43:33;;;;;;;17.97;13.07;;;5.40;1.00;;;;;;5116155;28;20452;-69
2022/03/21 02:46:06;;;;;;;16.10;12.90;;;5.40;1.00;;;;;;5115954;28;20441;-70
2022/03/21 02:48:33;;;;;;;17.20;11.93;;;5.40;1.00;;;;;;5116138;28;20459;-68
2022/03/21 02:51:02;;;;;;;14.70;12.47;;;5.30;1.00;;;;;;5115592;28;20487;-75
2022/03/21 02:53:32;;;;;;;18.63;12.30;;;5.30;1.00;;;;;;5116094;28;20476;-70
2022/03/21 02:55:59;;;;;;;17.30;12.73;;;5.20;1.00;;;;;;5115764;28;20525;-69
2022/03/21 02:58:26;;;;;;;16.33;12.53;;;5.20;1.00;;;;;;5115787;28;20547;-69
2022/03/21 03:01:00;;;;;;;18.47;12.40;;;5.20;1.00;;;;;;5115875;28;20449;-69
2022/03/21 03:03:26;;;;;;;16.50;13.33;;;5.10;1.00;;;;;;5115616;28;20445;-70
2022/03/21 03:05:53;;;;;;;18.20;13.33;;;5.10;1.00;;;;;;5115910;28;20457;-69
2022/03/21 03:08:20;;;;;;;16.30;13.27;;;5.10;1.00;;;;;;5115596;28;20448;-70
2022/03/21 03:10:46;;;;;;;22.73;13.50;;;5.00;1.00;;;;;;5118000;28;20480;-69
2022/03/21 03:13:13;;;;;;;18.10;12.90;;;5.00;1.00;;;;;;5116398;28;20766;-70
2022/03/21 03:15:40;;;;;;;17.40;12.80;;;5.00;1.00;;;;;;5115832;28;20461;-72
2022/03/21 03:18:08;;;;;;;22.93;13.93;;;4.90;1.00;;;;;;5115393;28;20456;-72
2022/03/21 03:20:35;;;;;;;22.20;14.97;;;4.90;1.00;;;;;;5115435;28;20448;-71
2022/03/21 03:23:04;;;;;;;21.97;13.63;;;4.90;1.00;;;;;;5115508;28;20452;-70
2022/03/21 03:25:30;;;;;;;20.10;13.90;;;4.90;1.00;;;;;;5115240;28;20839;-71
2022/03/21 03:27:57;;;;;;;20.70;14.20;;;4.90;1.00;;;;;;5115392;28;20768;-70
2022/03/21 03:30:24;;;;;;;20.87;15.20;;;4.90;1.00;;;;;;5115312;28;20485;-70
2022/03/21 03:32:51;;;;;;;19.60;14.30;;;4.90;1.00;;;;;;5115081;28;20534;-70
2022/03/21 03:35:19;;;;;;;21.97;15.07;;;4.80;1.00;;;;;;5115512;28;20852;-69
2022/03/21 03:37:46;;;;;;;20.60;13.63;;;4.80;1.00;;;;;;5114647;28;20495;-69
2022/03/21 03:40:14;;;;;;;22.37;15.23;;;4.80;1.00;;;;;;5115272;28;20509;-70
2022/03/21 03:42:41;;;;;;;22.57;14.10;;;4.70;1.00;;;;;;5115110;28;20457;-69
2022/03/21 03:45:08;;;;;;;23.30;14.77;;;4.70;1.00;;;;;;5115186;28;20457;-69
2022/03/21 03:47:35;;;;;;;24.20;14.43;;;4.70;1.00;;;;;;5114960;28;20810;-69
2022/03/21 03:50:02;;;;;;;26.27;15.40;;;4.60;1.00;;;;;;5114831;28;20483;-72
2022/03/21 03:52:30;;;;;;;22.20;15.40;;;4.60;1.00;;;;;;5114881;28;20489;-71
2022/03/21 03:54:57;;;;;;;22.03;15.47;;;4.60;1.00;;;;;;5114769;28;20453;-72
2022/03/21 03:57:23;;;;;;;23.60;15.27;;;4.60;1.00;;;;;;5114919;28;20453;-72
2022/03/21 03:59:50;;;;;;;24.50;16.03;;;4.60;1.00;;;;;;5115243;28;20456;-71
2022/03/21 04:02:17;;;;;;;20.20;14.43;;;4.50;1.00;;;;;;5114673;28;20463;-71
2022/03/21 04:04:44;;;;;;;24.57;14.70;;;4.50;1.00;;;;;;5114951;28;20457;-72
2022/03/21 04:07:10;;;;;;;24.20;16.80;;;4.50;1.00;;;;;;5114726;28;20461;-70
2022/03/21 04:09:38;;;;;;;23.33;15.50;;;4.50;1.00;;;;;;5114999;28;20487;-71
2022/03/21 04:12:06;;;;;;;21.27;14.80;;;4.50;1.00;;;;;;5115043;28;20464;-71
2022/03/21 04:14:33;;;;;;;26.97;15.33;;;4.40;1.00;;;;;;5115321;28;20812;-71
2022/03/21 04:17:00;;;;;;;21.50;14.97;;;4.50;1.00;;;;;;5115087;28;20460;-71
2022/03/21 04:19:27;;;;;;;25.57;16.07;;;4.40;1.00;;;;;;5115180;28;20641;-71
2022/03/21 04:21:53;;;;;;;22.80;15.20;;;4.40;1.00;;;;;;5115300;28;20517;-71
2022/03/21 04:24:20;;;;;;;22.47;16.47;;;4.40;1.00;;;;;;5115858;28;20517;-71
2022/03/21 04:26:48;;;;;;;20.30;15.90;;;4.40;1.00;;;;;;5115981;28;20484;-71
2022/03/21 04:29:15;;;;;;;23.63;16.57;;;4.40;1.00;;;;;;5114899;28;20465;-71
2022/03/21 04:31:42;;;;;;;25.03;16.10;;;4.40;1.00;;;;;;5115694;28;20469;-71
2022/03/21 04:34:09;;;;;;;24.27;15.80;;;4.40;1.00;;;;;;5115010;28;20554;-71
2022/03/21 04:36:35;;;;;;;26.17;17.80;;;4.40;1.00;;;;;;5114987;28;20906;-71
2022/03/21 04:39:03;;;;;;;22.33;15.73;;;4.40;1.00;;;;;;5115611;28;20464;-71
2022/03/21 04:41:30;;;;;;;22.87;16.03;;;4.40;1.00;;;;;;5116535;28;20848;-72
2022/03/21 04:43:58;;;;;;;22.53;15.73;;;4.40;1.00;;;;;;5115133;28;20485;-71
2022/03/21 04:46:25;;;;;;;25.50;16.50;;;4.40;1.00;;;;;;5114764;28;20463;-72
2022/03/21 04:48:51;;;;;;;29.73;17.37;;;4.40;1.00;;;;;;5114603;28;20498;-72
2022/03/21 04:51:19;;;;;;;23.67;16.87;;;4.40;1.00;;;;;;5117485;28;20480;-71
2022/03/21 04:53:46;;;;;;;25.47;15.73;;;4.40;1.00;;;;;;5118548;28;20958;-72
2022/03/21 04:56:13;;;;;;;26.53;15.37;;;4.30;1.00;;;;;;5118396;28;20448;-72
2022/03/21 04:58:39;;;;;;;27.33;15.63;;;4.30;1.00;;;;;;5118276;28;20460;-70
2022/03/21 05:01:07;;;;;;;26.63;15.60;;;4.40;1.00;;;;;;5118280;28;20457;-71
2022/03/21 05:03:35;;;;;;;23.43;16.03;;;4.30;1.00;;;;;;5118002;28;20918;-71
2022/03/21 05:06:03;;;;;;;21.70;15.57;;;4.20;1.00;;;;;;5117695;28;20452;-71
2022/03/21 05:08:30;;;;;;;26.77;16.43;;;4.30;1.00;;;;;;5117782;28;20552;-71
2022/03/21 05:10:57;;;;;;;24.07;14.87;;;4.20;1.00;;;;;;5118580;28;20986;-71
2022/03/21 05:13:24;;;;;;;26.73;15.57;;;4.20;1.00;;;;;;5118898;28;20548;-72
2022/03/21 05:15:50;;;;;;;25.27;17.07;;;4.20;1.00;;;;;;5118180;28;20456;-72
2022/03/21 05:18:21;;;;;;;24.30;15.80;;;4.20;1.00;;;;;;5118601;28;20560;-73
2022/03/21 05:20:48;;;;;;;27.27;16.60;;;4.10;1.00;;;;;;5118614;28;20452;-71
2022/03/21 05:31:28;;;;;;;23.57;16.27;;;4.10;1.00;;;;;;5117982;28;20934;-72
2022/03/21 05:36:40;;;;;;;21.70;15.80;;;4.00;1.00;;;;;;5117911;28;20483;-71
2022/03/21 05:39:07;;;;;;;25.17;16.00;;;4.10;1.00;;;;;;5117902;28;20520;-72
2022/03/21 05:41:36;;;;;;;24.40;16.63;;;4.00;1.00;;;;;;5117766;28;20449;-72
2022/03/21 05:44:03;;;;;;;21.50;15.17;;;4.00;1.00;;;;;;5117803;28;20513;-73
2022/03/21 05:46:30;;;;;;;22.30;16.20;;;4.00;1.00;;;;;;5117890;28;20803;-72
2022/03/21 05:49:00;;;;;;;24.67;15.00;;;4.00;1.00;;;;;;5117234;28;20502;-72
2022/03/21 05:51:29;;;;;;;23.27;16.63;;;4.00;1.00;;;;;;5117653;28;20479;-72
2022/03/21 05:53:57;;;;;;;27.03;16.57;;;4.10;1.00;;;;;;5117021;28;20484;-71
2022/03/21 05:56:25;;;;;;;20.70;15.10;;;4.10;1.00;;;;;;5117204;28;20772;-71
2022/03/21 05:58:53;;;;;;;21.00;15.00;;;4.20;1.00;;;;;;5117627;28;20666;-71
2022/03/21 06:01:22;;;;;;;22.37;15.40;;;4.20;1.00;;;;;;5117198;28;20751;-72
2022/03/21 06:03:50;;;;;;;29.50;15.30;;;4.30;1.00;;;;;;5117993;28;20500;-73
2022/03/21 06:06:18;;;;;;;23.50;15.10;;;4.20;1.00;;;;;;5117208;28;20467;-73
2022/03/21 06:08:45;;;;;;;24.00;19.53;;;4.20;1.00;;;;;;5118266;28;20464;-73
2022/03/21 06:11:12;;;;;;;24.10;15.23;;;4.30;1.00;;;;;;5117249;28;20480;-72
2022/03/21 06:13:43;;;;;;;20.70;15.10;;;4.30;1.00;;;;;;5117244;28;20765;-72
2022/03/21 06:16:12;;;;;;;21.40;15.60;;;4.30;1.00;;;;;;5116809;28;20436;-72
2022/03/21 06:18:40;;;;;;;21.20;14.90;;;4.40;1.00;;;;;;5116793;28;20467;-71
2022/03/21 06:21:08;;;;;;;22.93;14.10;;;4.30;1.00;;;;;;5116350;28;20488;-72
2022/03/21 06:23:36;;;;;;;24.20;16.10;;;4.30;1.00;;;;;;5116725;28;20467;-72
2022/03/21 06:26:04;;;;;;;22.23;16.20;;;4.40;1.00;;;;;;5117228;28;20467;-72
2022/03/21 06:28:31;;;;;;;21.60;15.30;;;4.40;1.00;;;;;;5117145;28;20814;-72
2022/03/21 06:30:58;;;;;;;26.13;16.07;;;4.40;1.00;;;;;;5117235;28;20472;-71
2022/03/21 06:33:27;;;;;;;21.27;15.50;;;4.50;1.00;;;;;;5116447;28;20463;-72
2022/03/21 06:35:55;;;;;;;28.43;16.57;;;4.50;1.00;;;;;;5116363;28;20487;-72
2022/03/21 06:38:22;;;;;;;25.10;17.17;;;4.50;1.00;;;;;;5116379;28;20453;-73
2022/03/21 06:40:50;;;;;;;22.80;16.20;;;4.50;1.00;;;;;;5116249;28;20452;-71
2022/03/21 06:43:20;;;;;;;24.97;15.80;;;4.50;1.00;;;;;;5116026;28;20617;-72
2022/03/21 06:45:47;;;;;;;28.90;17.10;;;4.60;1.00;;;;;;5116001;28;20480;-73
2022/03/21 06:48:14;;;;;;;23.97;16.53;;;4.60;1.00;;;;;;5116001;28;20456;-71
2022/03/21 06:50:41;;;;;;;23.30;15.00;;;4.70;1.00;;;;;;5115620;28;20480;-72
2022/03/21 06:53:08;;;;;;;23.13;15.63;;;4.70;1.00;;;;;;5115287;28;20480;-72
2022/03/21 06:55:34;;;;;;;22.50;16.33;;;4.80;1.00;;;;;;5115707;28;20539;-71
2022/03/21 06:58:03;;;;;;;21.73;15.63;;;4.80;1.00;;;;;;5115470;28;20456;-71
2022/03/21 07:00:31;;;;;;;23.23;15.07;;;4.90;1.00;;;;;;5115827;28;20461;-72
2022/03/21 07:02:58;;;;;;;24.20;15.50;;;4.90;1.00;;;;;;5115426;28;20460;-71
2022/03/21 07:05:26;;;;;;;31.43;16.27;;;5.00;1.00;;;;;;5115145;28;20456;-71
2022/03/21 07:07:52;;;;;;;24.17;15.70;;;5.00;1.00;;;;;;5115398;28;20452;-70
2022/03/21 07:10:19;;;;;;;21.00;15.50;;;5.00;1.00;;;;;;5115763;28;20863;-69
2022/03/21 07:12:46;;;;;;;23.77;14.70;;;5.10;1.00;;;;;;5114185;28;20466;-70
2022/03/21 07:15:15;;;;;;;20.93;15.30;;;5.20;1.00;;;;;;5115287;28;20452;-70
2022/03/21 07:17:42;;;;;;;25.17;15.50;;;5.30;1.00;;;;;;5116292;28;20787;-70
2022/03/21 07:20:11;;;;;;;30.33;17.60;;;5.30;1.00;;;;;;5117054;28;20480;-70
2022/03/21 07:22:37;;;;;;;20.47;14.80;;;5.40;1.00;;;;;;5114740;28;20453;-70
2022/03/21 07:25:06;;;;;;;25.20;14.30;;;5.50;1.00;;;;;;5114686;28;20484;-70
2022/03/21 07:27:32;;;;;;;19.80;14.07;;;5.60;1.00;;;;;;5114811;28;20471;-69
2022/03/21 07:29:59;;;;;;;24.77;14.40;;;5.80;1.00;;;;;;5114713;28;20460;-70
2022/03/21 07:32:27;;;;;;;20.00;13.87;;;5.90;1.00;;;;;;5114468;28;20457;-69
2022/03/21 07:34:54;;;;;;;17.10;12.73;;;6.00;1.00;;;;;;5114797;28;20538;-70
2022/03/21 07:37:20;;;;;;;17.77;12.43;;;6.10;1.00;;;;;;5114521;28;20456;-70
2022/03/21 07:39:47;;;;;;;18.17;12.63;;;6.20;1.00;;;;;;5115007;28;20567;-70
2022/03/21 07:42:16;;;;;;;19.30;12.23;;;6.30;1.00;;;;;;5114761;28;20559;-69
2022/03/21 07:47:27;;;;;;;19.93;11.60;;;6.50;1.00;;;;;;5063297;28;20991;-71
2022/03/21 07:49:55;;;;;;;33.03;14.50;;;6.60;1.00;;;;;;5114375;28;20457;-69
2022/03/21 07:52:22;;;;;;;19.97;13.07;;;6.70;1.00;;;;;;5113973;28;20884;-69
2022/03/21 07:54:53;;;;;;;17.40;12.70;;;6.80;1.00;;;;;;5114432;28;20793;-69
2022/03/21 07:57:20;;;;;;;22.10;13.30;;;6.90;1.00;;;;;;5113861;28;20440;-69
2022/03/21 07:59:47;;;;;;;18.20;11.47;;;7.00;1.00;;;;;;5114371;28;20524;-69
2022/03/21 08:02:13;;;;;;;15.57;11.90;;;7.00;1.00;;;;;;5114370;28;20449;-70
2022/03/21 08:04:41;;;;;;;16.67;10.83;;;7.10;1.00;;;;;;5114290;28;20456;-69
2022/03/21 08:07:08;;;;;;;16.30;11.40;;;7.10;1.00;;;;;;5113967;28;20463;-69
2022/03/21 08:09:35;;;;;;;16.10;12.40;;;7.20;1.00;;;;;;5115121;28;20798;-70
2022/03/21 08:12:02;;;;;;;15.03;10.57;;;7.30;1.00;;;;;;5114535;28;20495;-71
2022/03/21 08:14:29;;;;;;;16.43;11.40;;;7.30;1.00;;;;;;5114967;28;20791;-72
2022/03/21 08:16:56;;;;;;;19.63;13.00;;;7.50;1.00;;;;;;5114921;28;20486;-73
2022/03/21 08:19:44;;;;;;;16.13;10.97;;;7.50;1.00;;;;;;5114609;28;20995;-69
2022/03/21 08:22:10;;;;;;;15.80;10.50;;;7.60;1.00;;;;;;5113801;28;20449;-70
2022/03/21 08:24:37;;;;;;;13.93;11.50;;;7.70;1.00;;;;;;5116738;28;20456;-69
2022/03/21 08:27:06;;;;;;;14.80;11.77;;;7.70;1.00;;;;;;5119462;28;20452;-70
2022/03/21 08:29:33;;;;;;;15.23;10.83;;;7.80;1.00;;;;;;5118737;28;20481;-70
2022/03/21 08:32:00;;;;;;;17.37;11.10;;;7.90;1.00;;;;;;5118590;28;20484;-70
2022/03/21 08:34:27;;;;;;;15.53;11.10;;;8.00;1.00;;;;;;5120018;28;20456;-70
2022/03/21 08:36:55;;;;;;;12.97;10.13;;;8.10;1.00;;;;;;5118557;28;20492;-70
2022/03/21 08:39:21;;;;;;;17.90;10.60;;;8.10;1.00;;;;;;5118601;28;20464;-69
2022/03/21 08:41:48;;;;;;;19.50;10.67;;;8.10;1.00;;;;;;5118634;28;20780;-71
2022/03/21 08:44:17;;;;;;;14.93;9.20;;;8.10;1.00;;;;;;5118538;28;20453;-70
2022/03/21 08:46:44;;;;;;;16.83;10.23;;;8.20;1.00;;;;;;5118365;28;20452;-71
2022/03/21 08:49:27;;;;;;;14.50;9.83;;;8.30;1.00;;;;;;5119868;28;20452;-72
2022/03/21 08:51:55;;;;;;;14.43;9.50;;;8.40;1.00;;;;;;5117051;28;20460;-71
2022/03/21 08:54:22;;;;;;;18.33;9.17;;;8.50;1.00;;;;;;5117808;28;20527;-69
2022/03/21 08:56:49;;;;;;;12.27;9.63;;;8.50;1.00;;;;;;5117540;28;20520;-70
2022/03/21 08:59:16;;;;;;;15.23;9.43;;;8.50;1.00;;;;;;5117718;28;20452;-69
2022/03/21 09:01:43;;;;;;;16.97;9.60;;;8.60;1.00;;;;;;5117492;28;20480;-69
2022/03/21 09:04:10;;;;;;;18.17;9.77;;;8.70;1.00;;;;;;5117339;28;20902;-70
2022/03/21 09:06:37;;;;;;;12.70;10.00;;;8.80;1.00;;;;;;5117607;28;20468;-69
2022/03/21 09:09:05;;;;;;;14.03;10.07;;;8.90;1.00;;;;;;5117126;28;20504;-70
2022/03/21 09:11:32;;;;;;;13.30;9.27;;;9.10;1.00;;;;;;5117074;28;20973;-70
2022/03/21 09:14:02;;;;;;;10.97;9.13;;;9.10;1.00;;;;;;5117706;28;20467;-70
2022/03/21 09:16:29;;;;;;;14.93;8.93;;;9.20;1.00;;;;;;5117864;28;20762;-70
2022/03/21 09:18:56;;;;;;;14.60;9.30;;;9.30;1.00;;;;;;5117396;28;20942;-69
2022/03/21 09:21:22;;;;;;;17.50;9.77;;;9.40;1.00;;;;;;5116813;28;20452;-70
2022/03/21 09:23:50;;;;;;;16.90;8.87;;;9.40;1.00;;;;;;5117118;28;20940;-70
2022/03/21 09:26:20;;;;;;;10.60;8.33;;;9.50;1.00;;;;;;5117444;28;20476;-71
2022/03/21 09:28:48;;;;;;;12.30;8.83;;;9.50;1.00;;;;;;5118115;28;20452;-70
2022/03/21 09:31:15;;;;;;;13.63;9.13;;;9.60;1.00;;;;;;5116726;28;20476;-70
2022/03/21 09:33:42;;;;;;;14.83;9.10;;;9.70;1.00;;;;;;5116652;28;20459;-70
2022/03/21 09:36:10;;;;;;;13.17;8.50;;;9.70;1.00;;;;;;5116467;28;20929;-70
2022/03/21 09:38:37;;;;;;;10.50;7.60;;;9.70;1.00;;;;;;5117172;28;20514;-70
2022/03/21 09:41:05;;;;;;;11.77;8.47;;;9.70;1.00;;;;;;5117501;28;20471;-70
2022/03/21 09:43:33;;;;;;;9.57;7.20;;;9.80;1.00;;;;;;5117927;28;20452;-70
2022/03/21 09:46:00;;;;;;;12.80;7.93;;;9.90;1.00;;;;;;5116976;28;20914;-70
2022/03/21 09:48:28;;;;;;;11.17;8.87;;;10.00;1.00;;;;;;5117109;28;20458;-69
2022/03/21 09:50:56;;;;;;;12.67;8.77;;;10.00;1.00;;;;;;5116160;28;20456;-69
2022/03/21 09:53:24;;;;;;;14.70;8.80;;;10.00;1.00;;;;;;5116547;28;20484;-69
2022/03/21 09:55:51;;;;;;;11.53;8.80;;;10.00;1.00;;;;;;5116711;28;20457;-70
2022/03/21 09:58:20;;;;;;;11.97;8.30;;;10.10;1.00;;;;;;5116658;28;20460;-69
2022/03/21 10:00:49;;;;;;;11.07;8.50;;;10.20;1.00;;;;;;5116509;28;20467;-70
2022/03/21 10:03:17;;;;;;;12.57;9.67;;;10.40;1.00;;;;;;5116456;28;20503;-71
2022/03/21 10:05:46;;;;;;;11.00;8.43;;;10.40;1.00;;;;;;5116379;28;20514;-70
2022/03/21 10:08:15;;;;;;;11.43;8.27;;;10.40;1.00;;;;;;5115943;28;20453;-70
2022/03/21 10:10:52;;;;;;;11.17;8.00;;;10.40;1.00;;;;;;5116410;28;20456;-70
2022/03/21 10:13:20;;;;;;;12.37;9.47;;;10.50;1.00;;;;;;5116466;28;20433;-69
2022/03/21 10:15:48;;;;;;;11.30;9.07;;;10.60;1.00;;;;;;5116305;28;20544;-70
2022/03/21 10:18:16;;;;;;;12.87;7.80;;;10.70;1.00;;;;;;5116251;28;20564;-70
2022/03/21 10:20:42;;;;;;;16.07;9.10;;;10.80;1.00;;;;;;5115894;28;20922;-70
2022/03/21 10:23:17;;;;;;;18.70;8.50;;;10.80;1.00;;;;;;5116160;28;20460;-69
2022/03/21 10:25:44;;;;;;;10.90;8.70;;;10.80;1.00;;;;;;5116065;28;20456;-69
2022/03/21 10:28:11;;;;;;;10.70;8.27;;;10.80;1.00;;;;;;5116327;28;20838;-69
2022/03/21 10:30:43;;;;;;;13.53;9.13;;;10.80;1.00;;;;;;5116324;28;20543;-70
2022/03/21 10:33:23;;;;;;;12.63;9.00;;;10.80;1.00;;;;;;5115960;28;20552;-69
2022/03/21 10:35:50;;;;;;;12.43;8.17;;;10.80;1.00;;;;;;5116037;28;20502;-70
2022/03/21 10:38:30;;;;;;;15.07;8.17;;;10.90;1.00;;;;;;5115789;28;20464;-70
2022/03/21 10:40:57;;;;;;;10.73;8.60;;;10.90;1.00;;;;;;5115543;28;20512;-70
2022/03/21 10:43:25;;;;;;;14.90;8.30;;;10.90;1.00;;;;;;5116240;28;20456;-72
2022/03/21 10:45:54;;;;;;;10.80;7.60;;;11.00;1.00;;;;;;5115975;28;20806;-71
2022/03/21 10:48:25;;;;;;;10.23;7.70;;;11.30;1.00;;;;;;5114598;28;20846;-71
2022/03/21 10:50:54;;;;;;;10.03;7.80;;;11.40;1.00;;;;;;5115588;28;20444;-71
2022/03/21 10:53:24;;;;;;;13.27;9.00;;;11.60;1.00;;;;;;5115163;28;20488;-71
2022/03/21 10:55:59;;;;;;;11.20;8.13;;;11.70;1.00;;;;;;5115597;28;20449;-71
2022/03/21 10:58:33;;;;;;;9.87;8.10;;;11.80;1.00;;;;;;5115287;28;20436;-71
2022/03/21 11:01:10;;;;;;;9.73;7.73;;;11.80;1.00;;;;;;5115875;28;20437;-71
2022/03/21 11:03:43;;;;;;;13.47;8.77;;;11.80;1.00;;;;;;5117692;28;20464;-72
2022/03/21 11:06:10;;;;;;;9.27;8.10;;;11.90;1.00;;;;;;5119760;28;20472;-73
2022/03/21 11:08:37;;;;;;;15.40;9.07;;;12.10;1.00;;;;;;5115923;28;20452;-72
2022/03/21 11:11:05;;;;;;;12.63;8.50;;;12.30;1.00;;;;;;5115909;28;20456;-71
2022/03/21 11:13:32;;;;;;;10.20;8.57;;;12.50;1.00;;;;;;5115524;28;20560;-73
2022/03/21 11:16:00;;;;;;;13.10;8.40;;;12.50;1.00;;;;;;5115150;28;20456;-72
2022/03/21 11:18:27;;;;;;;14.37;9.33;;;12.50;1.00;;;;;;5115342;28;20460;-72
2022/03/21 11:20:57;;;;;;;12.90;11.37;;;12.60;1.00;;;;;;5114705;28;20484;-72
2022/03/21 11:23:25;;;;;;;12.70;8.87;;;12.60;1.00;;;;;;5115001;28;20456;-71
2022/03/21 11:25:56;;;;;;;10.57;9.40;;;12.80;1.00;;;;;;5115035;28;21036;-74
2022/03/21 11:29:15;;;;;;;11.00;9.30;;;12.80;1.00;;;;;;5114766;28;20471;-71
2022/03/21 11:32:06;;;;;;;12.00;8.50;;;12.80;1.00;;;;;;5114737;28;20472;-71
2022/03/21 11:34:44;;;;;;;10.70;8.40;;;13.00;1.00;;;;;;5114562;28;20441;-72
2022/03/21 11:37:26;;;;;;;9.43;8.07;;;13.20;1.00;;;;;;5114268;28;20437;-72
2022/03/21 11:40:30;;;;;;;16.13;7.30;;;13.60;1.00;;;;;;5114290;28;20817;-72
2022/03/21 11:43:12;;;;;;;16.33;8.53;;;13.90;1.00;;;;;;5114811;28;20452;-72
2022/03/21 11:45:39;;;;;;;11.70;7.07;;;14.20;1.00;;;;;;5114049;28;20787;-71
2022/03/21 11:48:47;;;;;;;11.10;7.20;;;14.80;1.00;;;;;;5117605;28;20490;-73
2022/03/21 11:51:48;;;;;;;11.37;7.70;;;15.50;1.00;;;;;;5115736;28;20506;-71
2022/03/21 11:54:30;;;;;;;7.87;7.17;;;16.30;1.00;;;;;;5113899;28;20912;-70
2022/03/21 11:57:03;;;;;;;9.13;7.80;;;16.70;1.00;;;;;;5113954;28;20756;-70
2022/03/21 11:59:56;;;;;;;9.83;7.47;;;17.10;1.00;;;;;;5117885;28;20441;-70
2022/03/21 12:02:57;;;;;;;9.20;8.17;;;17.40;1.00;;;;;;5121922;28;20468;-70
2022/03/21 12:05:50;;;;;;;10.00;7.50;;;18.20;1.00;;;;;;5121133;28;20920;-71
2022/03/21 12:08:37;;;;;;;10.53;6.90;;;18.60;1.00;;;;;;5121552;28;20526;-70
2022/03/21 12:11:07;;;;;;;7.80;6.77;;;19.10;1.00;;;;;;5121152;28;20828;-70
2022/03/21 12:13:46;;;;;;;10.43;7.40;;;19.30;1.00;;;;;;5122197;28;20980;-72
2022/03/21 12:16:20;;;;;;;8.80;6.90;;;19.50;1.00;;;;;;5121367;28;20456;-73
2022/03/21 12:19:02;;;;;;;8.43;7.30;;;19.50;1.00;;;;;;5121144;28;20459;-72
2022/03/21 12:21:29;;;;;;;7.43;6.70;;;20.00;1.00;;;;;;5121097;28;20451;-72
2022/03/21 12:24:15;;;;;;;10.60;6.60;;;20.10;1.00;;;;;;5121304;28;20452;-70
2022/03/21 12:26:56;;;;;;;10.23;7.37;;;20.50;1.00;;;;;;5121740;28;20452;-69
2022/03/21 12:29:33;;;;;;;9.20;5.87;;;21.00;1.00;;;;;;5121088;28;20542;-70
2022/03/21 12:32:26;;;;;;;9.27;7.43;;;20.70;1.00;;;;;;5121840;28;20478;-69
2022/03/21 12:34:54;;;;;;;8.87;6.83;;;19.70;1.00;;;;;;5121572;28;20456;-70
2022/03/21 12:37:42;;;;;;;10.10;7.70;;;20.00;1.00;;;;;;5121488;28;20526;-71
2022/03/21 12:40:11;;;;;;;7.70;6.00;;;20.60;1.00;;;;;;5114375;28;20456;-70
2022/03/21 12:42:45;;;;;;;8.10;7.30;;;21.50;1.00;;;;;;5121730;28;20480;-70
2022/03/21 12:45:18;;;;;;;8.13;7.33;;;22.20;1.00;;;;;;5122510;28;20798;-70
2022/03/21 12:47:45;;;;;;;9.07;7.13;;;23.30;1.00;;;;;;5121556;28;20501;-70
2022/03/21 12:50:19;;;;;;;8.50;7.70;;;24.40;1.00;;;;;;5121041;28;20443;-70
2022/03/21 12:52:53;;;;;;;10.00;7.87;;;24.90;1.00;;;;;;5120953;28;20601;-70
2022/03/21 12:55:20;;;;;;;8.10;7.30;;;25.00;1.00;;;;;;5121609;28;20440;-69
2022/03/21 12:57:55;;;;;;;11.27;7.90;;;25.00;1.00;;;;;;5121765;28;20795;-71
2022/03/21 13:00:24;;;;;;;9.20;7.80;;;24.90;1.00;;;;;;5121363;28;20432;-69
2022/03/21 13:02:55;;;;;;;10.90;8.60;;;25.60;1.00;;;;;;5121036;28;20535;-69
2022/03/21 13:10:52;;;;;;;15.77;8.60;;;25.40;1.00;;;;;;5118546;28;20415;-70
2022/03/21 13:13:21;;;;;;;12.83;7.13;;;25.10;1.00;;;;;;5117440;28;20540;-70
2022/03/21 13:16:01;;;;;;;9.40;8.50;;;24.80;1.00;;;;;;5117441;28;20459;-70
2022/03/21 13:18:36;;;;;;;8.80;7.90;;;24.50;1.00;;;;;;5117721;28;20440;-69
2022/03/21 13:21:04;;;;;;;10.23;8.07;;;25.10;1.00;;;;;;5117409;28;20436;-71